createdAt,value
2018-04-19T00:00:35.877Z,0.00
2018-04-19T00:01:35.787Z,0.00
2018-04-19T00:02:35.695Z,0.00
2018-04-19T00:03:35.830Z,0.00
2018-04-19T00:04:35.490Z,0.00
2018-04-19T00:05:35.386Z,0.00
2018-04-19T00:06:35.294Z,0.00
2018-04-19T00:07:35.192Z,0.00
2018-04-19T00:08:35.105Z,0.00
2018-04-19T00:09:34.998Z,0.00
2018-04-19T00:10:34.907Z,0.00
2018-04-19T00:11:34.804Z,0.00
2018-04-19T00:12:34.700Z,0.00
2018-04-19T00:13:34.609Z,0.00
2018-04-19T00:14:34.507Z,0.00
2018-04-19T00:15:34.414Z,0.00
2018-04-19T00:16:34.311Z,0.00
2018-04-19T00:17:34.221Z,0.00
2018-04-19T00:18:34.117Z,0.00
2018-04-19T00:19:34.013Z,0.00
2018-04-19T00:20:33.936Z,0.00
2018-04-19T00:21:33.819Z,0.00
2018-04-19T00:22:33.730Z,0.00
2018-04-19T00:23:33.627Z,0.00
2018-04-19T00:24:33.535Z,0.00
2018-04-19T00:25:33.430Z,0.00
2018-04-19T00:26:33.328Z,0.00
2018-04-19T00:27:33.237Z,0.00
2018-04-19T00:28:33.133Z,0.00
2018-04-19T00:29:33.043Z,0.00
2018-04-19T00:30:32.940Z,0.00
2018-04-19T00:31:32.837Z,0.00
2018-04-19T00:32:32.746Z,0.00
2018-04-19T00:33:32.644Z,0.00
2018-04-19T00:34:32.605Z,0.00
2018-04-19T00:35:32.448Z,0.00
2018-04-19T00:36:32.357Z,0.00
2018-04-19T00:37:32.254Z,0.00
2018-04-19T00:38:32.152Z,0.00
2018-04-19T00:39:32.059Z,0.00
2018-04-19T00:40:31.957Z,0.00
2018-04-19T00:41:31.867Z,0.00
2018-04-19T00:42:31.766Z,0.00
2018-04-19T00:43:31.964Z,0.00
2018-04-19T00:44:31.572Z,0.00
2018-04-19T00:45:31.475Z,0.00
2018-04-19T00:46:31.375Z,0.00
2018-04-19T00:47:31.272Z,0.00
2018-04-19T00:48:31.181Z,0.00
2018-04-19T00:49:31.077Z,0.00
2018-04-19T00:50:30.979Z,0.00
2018-04-19T00:51:30.885Z,0.00
2018-04-19T00:52:30.780Z,0.00
2018-04-19T00:53:30.689Z,0.00
2018-04-19T00:54:30.585Z,0.00
2018-04-19T00:55:30.483Z,0.00
2018-04-19T00:56:30.392Z,0.00
2018-04-19T00:57:30.289Z,0.00
2018-04-19T00:58:30.197Z,0.00
2018-04-19T00:59:30.094Z,0.00
2018-04-19T01:00:30.004Z,0.00
2018-04-19T01:01:29.900Z,0.00
2018-04-19T01:02:29.797Z,0.00
2018-04-19T01:03:29.714Z,0.00
2018-04-19T01:04:29.604Z,0.00
2018-04-19T01:05:29.513Z,0.00
2018-04-19T01:06:29.410Z,0.00
2018-04-19T01:07:29.306Z,0.00
2018-04-19T01:08:29.216Z,0.00
2018-04-19T01:09:29.115Z,0.00
2018-04-19T01:10:29.022Z,0.00
2018-04-19T01:11:28.917Z,0.00
2018-04-19T01:12:28.826Z,0.00
2018-04-19T01:13:29.023Z,0.00
2018-04-19T01:14:28.624Z,0.00
2018-04-19T01:15:28.529Z,0.00
2018-04-19T01:16:28.426Z,0.00
2018-04-19T01:17:28.334Z,0.00
2018-04-19T01:18:28.232Z,0.00
2018-04-19T01:19:28.128Z,0.00
2018-04-19T01:20:28.038Z,0.00
2018-04-19T01:21:27.934Z,0.00
2018-04-19T01:22:27.842Z,0.00
2018-04-19T01:23:27.989Z,0.00
2018-04-19T01:24:27.637Z,0.00
2018-04-19T01:25:27.547Z,0.00
2018-04-19T01:26:27.447Z,0.00
2018-04-19T01:27:27.352Z,0.00
2018-04-19T01:28:27.248Z,0.00
2018-04-19T01:29:27.159Z,0.00
2018-04-19T01:30:27.055Z,0.00
2018-04-19T01:31:26.952Z,0.00
2018-04-19T01:32:26.860Z,0.00
2018-04-19T01:33:26.757Z,0.00
2018-04-19T01:34:26.666Z,0.00
2018-04-19T01:35:26.563Z,0.00
2018-04-19T01:36:26.460Z,0.00
2018-04-19T01:37:26.368Z,0.00
2018-04-19T01:38:26.265Z,0.00
2018-04-19T01:39:26.174Z,0.00
2018-04-19T01:40:26.072Z,0.00
2018-04-19T01:41:25.968Z,0.00
2018-04-19T01:42:25.876Z,0.00
2018-04-19T01:43:25.773Z,0.00
2018-04-19T01:44:25.684Z,0.00
2018-04-19T01:45:25.584Z,0.00
2018-04-19T01:46:25.477Z,0.00
2018-04-19T01:47:25.385Z,0.00
2018-04-19T01:48:25.282Z,0.00
2018-04-19T01:49:25.195Z,0.00
2018-04-19T01:50:25.089Z,0.00
2018-04-19T01:51:24.985Z,0.00
2018-04-19T01:52:24.894Z,0.00
2018-04-19T01:53:24.790Z,0.00
2018-04-19T01:54:24.720Z,0.00
2018-04-19T01:55:24.596Z,0.00
2018-04-19T01:56:24.505Z,0.00
2018-04-19T01:57:24.403Z,0.00
2018-04-19T01:58:24.300Z,0.00
2018-04-19T01:59:24.208Z,0.00
2018-04-19T02:00:24.106Z,0.00
2018-04-19T02:01:24.002Z,0.00
2018-04-19T02:02:23.910Z,0.00
2018-04-19T02:03:23.807Z,0.00
2018-04-19T02:04:23.717Z,0.00
2018-04-19T02:05:23.613Z,0.00
2018-04-19T02:06:23.510Z,0.00
2018-04-19T02:07:23.418Z,0.00
2018-04-19T02:08:23.315Z,0.00
2018-04-19T02:09:23.225Z,0.00
2018-04-19T02:10:23.122Z,0.00
2018-04-19T02:11:23.019Z,0.00
2018-04-19T02:12:22.927Z,0.00
2018-04-19T02:13:23.097Z,0.00
2018-04-19T02:14:22.736Z,0.00
2018-04-19T02:15:22.629Z,0.00
2018-04-19T02:16:22.528Z,0.00
2018-04-19T02:17:22.436Z,0.00
2018-04-19T02:18:22.333Z,0.00
2018-04-19T02:19:22.233Z,0.00
2018-04-19T02:20:22.138Z,0.00
2018-04-19T02:21:22.035Z,0.00
2018-04-19T02:22:21.944Z,0.00
2018-04-19T02:23:21.841Z,0.00
2018-04-19T02:24:21.737Z,0.00
2018-04-19T02:25:21.649Z,0.00
2018-04-19T02:26:21.544Z,0.00
2018-04-19T02:27:21.441Z,0.00
2018-04-19T02:28:21.349Z,0.00
2018-04-19T02:29:21.246Z,0.00
2018-04-19T02:30:21.155Z,0.00
2018-04-19T02:31:21.054Z,0.00
2018-04-19T02:32:20.951Z,0.00
2018-04-19T02:33:20.857Z,0.00
2018-04-19T02:34:20.754Z,0.00
2018-04-19T02:35:20.651Z,0.00
2018-04-19T02:36:20.560Z,0.00
2018-04-19T02:37:20.458Z,0.00
2018-04-19T02:38:20.366Z,0.00
2018-04-19T02:39:20.262Z,0.00
2018-04-19T02:40:20.159Z,0.00
2018-04-19T02:41:20.069Z,0.00
2018-04-19T02:42:19.966Z,0.00
2018-04-19T02:43:19.863Z,0.00
2018-04-19T02:44:19.770Z,0.00
2018-04-19T02:45:19.667Z,0.00
2018-04-19T02:46:19.568Z,0.00
2018-04-19T02:47:19.475Z,0.00
2018-04-19T02:48:19.372Z,0.00
2018-04-19T02:49:19.279Z,0.00
2018-04-19T02:50:19.177Z,0.00
2018-04-19T02:51:19.073Z,0.00
2018-04-19T02:52:18.982Z,0.00
2018-04-19T02:53:19.179Z,0.00
2018-04-19T02:54:18.781Z,0.00
2018-04-19T02:55:18.684Z,0.00
2018-04-19T02:56:18.581Z,0.00
2018-04-19T02:57:18.479Z,0.00
2018-04-19T02:58:18.388Z,0.00
2018-04-19T02:59:18.284Z,0.00
2018-04-19T03:00:18.195Z,0.00
2018-04-19T03:01:18.089Z,0.00
2018-04-19T03:02:17.986Z,0.00
2018-04-19T03:03:18.145Z,0.00
2018-04-19T03:04:17.793Z,0.00
2018-04-19T03:05:17.695Z,0.00
2018-04-19T03:06:17.597Z,0.00
2018-04-19T03:07:17.496Z,0.00
2018-04-19T03:08:17.404Z,0.00
2018-04-19T03:09:17.302Z,0.00
2018-04-19T03:10:17.198Z,0.00
2018-04-19T03:11:17.094Z,0.00
2018-04-19T03:12:17.004Z,0.00
2018-04-19T03:13:17.199Z,0.00
2018-04-19T03:14:16.797Z,0.00
2018-04-19T03:15:16.705Z,0.00
2018-04-19T03:16:16.603Z,0.00
2018-04-19T03:17:16.511Z,0.00
2018-04-19T03:18:16.407Z,0.00
2018-04-19T03:19:16.304Z,0.00
2018-04-19T03:20:16.214Z,0.00
2018-04-19T03:21:16.114Z,0.00
2018-04-19T03:22:16.007Z,0.00
2018-04-19T03:23:15.916Z,0.00
2018-04-19T03:24:15.813Z,0.00
2018-04-19T03:25:15.709Z,0.00
2018-04-19T03:26:15.619Z,4.00
2018-04-19T03:27:15.520Z,4.00
2018-04-19T03:28:15.412Z,0.00
2018-04-19T03:29:15.334Z,0.00
2018-04-19T03:30:15.218Z,4.00
2018-04-19T03:31:15.114Z,4.00
2018-04-19T03:32:15.025Z,4.00
2018-04-19T03:33:15.222Z,4.00
2018-04-19T03:34:14.821Z,8.00
2018-04-19T03:35:14.731Z,8.00
2018-04-19T03:36:14.623Z,8.00
2018-04-19T03:37:14.520Z,8.00
2018-04-19T03:38:14.430Z,12.00
2018-04-19T03:39:14.327Z,16.00
2018-04-19T03:40:14.223Z,16.00
2018-04-19T03:41:14.131Z,20.00
2018-04-19T03:42:14.029Z,20.00
2018-04-19T03:43:14.176Z,24.00
2018-04-19T03:44:13.837Z,28.00
2018-04-19T03:45:13.732Z,36.00
2018-04-19T03:46:13.629Z,40.00
2018-04-19T03:47:13.537Z,40.00
2018-04-19T03:48:13.433Z,52.00
2018-04-19T03:49:13.331Z,56.00
2018-04-19T03:50:13.240Z,64.00
2018-04-19T03:51:13.136Z,72.00
2018-04-19T03:52:13.033Z,84.00
2018-04-19T03:53:12.942Z,92.00
2018-04-19T03:54:12.837Z,104.00
2018-04-19T03:55:12.737Z,112.00
2018-04-19T03:56:12.646Z,128.00
2018-04-19T03:57:12.546Z,144.00
2018-04-19T03:58:12.454Z,160.00
2018-04-19T03:59:12.347Z,172.00
2018-04-19T04:00:12.243Z,188.00
2018-04-19T04:01:12.172Z,208.00
2018-04-19T04:02:12.051Z,224.00
2018-04-19T04:03:12.197Z,244.00
2018-04-19T04:04:11.844Z,260.00
2018-04-19T04:05:11.755Z,280.00
2018-04-19T04:06:11.648Z,300.00
2018-04-19T04:07:11.546Z,324.00
2018-04-19T04:08:11.461Z,348.00
2018-04-19T04:09:11.352Z,372.00
2018-04-19T04:10:11.261Z,396.00
2018-04-19T04:11:11.157Z,424.00
2018-04-19T04:12:11.054Z,452.00
2018-04-19T04:13:10.964Z,484.00
2018-04-19T04:14:10.862Z,512.00
2018-04-19T04:15:10.758Z,540.00
2018-04-19T04:16:10.679Z,576.00
2018-04-19T04:17:10.575Z,612.00
2018-04-19T04:18:10.459Z,648.00
2018-04-19T04:19:10.370Z,684.00
2018-04-19T04:20:10.267Z,720.00
2018-04-19T04:21:10.178Z,756.00
2018-04-19T04:22:10.071Z,796.00
2018-04-19T04:23:09.968Z,836.00
2018-04-19T04:24:09.866Z,872.00
2018-04-19T04:25:09.774Z,916.00
2018-04-19T04:26:09.671Z,956.00
2018-04-19T04:27:09.568Z,1000.00
2018-04-19T04:28:09.476Z,1044.00
2018-04-19T04:29:09.375Z,1092.00
2018-04-19T04:30:09.271Z,1144.00
2018-04-19T04:31:09.196Z,1196.00
2018-04-19T04:32:09.076Z,1248.00
2018-04-19T04:33:08.984Z,1300.00
2018-04-19T04:34:08.881Z,1356.00
2018-04-19T04:35:08.778Z,1412.00
2018-04-19T04:36:08.687Z,1468.00
2018-04-19T04:37:08.584Z,1524.00
2018-04-19T04:38:08.482Z,1576.00
2018-04-19T04:39:08.403Z,1628.00
2018-04-19T04:40:08.287Z,1692.00
2018-04-19T04:41:08.196Z,1748.00
2018-04-19T04:42:08.092Z,1804.00
2018-04-19T04:43:07.994Z,1864.00
2018-04-19T04:44:07.902Z,1928.00
2018-04-19T04:45:07.796Z,1996.00
2018-04-19T04:46:07.704Z,2056.00
2018-04-19T04:47:07.601Z,2124.00
2018-04-19T04:48:07.758Z,2188.00
2018-04-19T04:49:07.407Z,2256.00
2018-04-19T04:50:07.308Z,2324.00
2018-04-19T04:51:07.213Z,2392.00
2018-04-19T04:52:07.111Z,2456.00
2018-04-19T04:53:07.017Z,2532.00
2018-04-19T04:54:06.915Z,2604.00
2018-04-19T04:55:06.824Z,2672.00
2018-04-19T04:56:06.722Z,2736.00
2018-04-19T04:57:06.630Z,2808.00
2018-04-19T04:58:06.526Z,2876.00
2018-04-19T04:59:06.436Z,2956.00
2018-04-19T05:00:06.365Z,3032.00
2018-04-19T05:01:06.241Z,3100.00
2018-04-19T05:02:06.137Z,3168.00
2018-04-19T05:03:06.048Z,3236.00
2018-04-19T05:04:05.944Z,3316.00
2018-04-19T05:05:05.852Z,3384.00
2018-04-19T05:06:05.749Z,3456.00
2018-04-19T05:07:05.665Z,3524.00
2018-04-19T05:08:05.556Z,3600.00
2018-04-19T05:09:05.464Z,3664.00
2018-04-19T05:10:05.375Z,3732.00
2018-04-19T05:11:05.270Z,3800.00
2018-04-19T05:12:05.185Z,3880.00
2018-04-19T05:13:05.076Z,3960.00
2018-04-19T05:14:04.987Z,4028.00
2018-04-19T05:15:04.898Z,4088.00
2018-04-19T05:16:04.792Z,4168.00
2018-04-19T05:17:04.701Z,4244.00
2018-04-19T05:18:04.599Z,4304.00
2018-04-19T05:19:04.506Z,4364.00
2018-04-19T05:20:04.416Z,4416.00
2018-04-19T05:21:04.314Z,4468.00
2018-04-19T05:22:04.224Z,4544.00
2018-04-19T05:23:04.131Z,4620.00
2018-04-19T05:24:04.029Z,4696.00
2018-04-19T05:25:03.937Z,4768.00
2018-04-19T05:26:03.847Z,4828.00
2018-04-19T05:27:03.744Z,4884.00
2018-04-19T05:28:03.951Z,4716.00
2018-04-19T05:29:03.562Z,4720.00
2018-04-19T05:30:03.472Z,5116.00
2018-04-19T05:31:03.380Z,5204.00
2018-04-19T05:32:03.280Z,5292.00
2018-04-19T05:33:03.185Z,5372.00
2018-04-19T05:34:03.096Z,5440.00
2018-04-19T05:35:03.009Z,5492.00
2018-04-19T05:36:02.900Z,5548.00
2018-04-19T05:37:02.810Z,5628.00
2018-04-19T05:38:02.722Z,5672.00
2018-04-19T05:39:02.636Z,5620.00
2018-04-19T05:40:02.540Z,5768.00
2018-04-19T05:41:02.435Z,5476.00
2018-04-19T05:42:02.343Z,5836.00
2018-04-19T05:43:02.252Z,6064.00
2018-04-19T05:44:02.184Z,6188.00
2018-04-19T05:45:02.071Z,6256.00
2018-04-19T05:46:01.981Z,6300.00
2018-04-19T05:47:01.889Z,6340.00
2018-04-19T05:48:01.804Z,6348.00
2018-04-19T05:49:01.707Z,6356.00
2018-04-19T05:50:01.618Z,6384.00
2018-04-19T05:51:01.518Z,6412.00
2018-04-19T05:52:01.436Z,6476.00
2018-04-19T05:53:01.335Z,6536.00
2018-04-19T05:54:01.241Z,6600.00
2018-04-19T05:55:01.150Z,6696.00
2018-04-19T05:56:01.072Z,6764.00
2018-04-19T05:57:00.968Z,6836.00
2018-04-19T05:58:00.878Z,6912.00
2018-04-19T05:59:00.787Z,6984.00
2018-04-19T06:00:00.697Z,7036.00
2018-04-19T06:01:00.617Z,7088.00
2018-04-19T06:02:00.527Z,7152.00
2018-04-19T06:03:00.438Z,7224.00
2018-04-19T06:04:00.344Z,7332.00
2018-04-19T06:05:00.267Z,7396.00
2018-04-19T06:06:00.164Z,7452.00
2018-04-19T06:07:00.073Z,7504.00
2018-04-19T06:07:59.982Z,7560.00
2018-04-19T06:08:59.890Z,7600.00
2018-04-19T06:09:59.801Z,7700.00
2018-04-19T06:10:59.710Z,7772.00
2018-04-19T06:11:59.640Z,7864.00
2018-04-19T06:12:59.541Z,7976.00
2018-04-19T06:13:59.461Z,8052.00
2018-04-19T06:14:59.359Z,8100.00
2018-04-19T06:15:59.267Z,8176.00
2018-04-19T06:16:59.178Z,8220.00
2018-04-19T06:17:59.101Z,8276.00
2018-04-19T06:18:59.011Z,8304.00
2018-04-19T06:19:58.921Z,8392.00
2018-04-19T06:20:58.826Z,8452.00
2018-04-19T06:21:58.735Z,8540.00
2018-04-19T06:22:58.907Z,8592.00
2018-04-19T06:23:58.566Z,8656.00
2018-04-19T06:24:58.535Z,8708.00
2018-04-19T06:25:58.384Z,8760.00
2018-04-19T06:26:58.296Z,8836.00
2018-04-19T06:27:58.216Z,8860.00
2018-04-19T06:28:58.124Z,8864.00
2018-04-19T06:29:58.035Z,8904.00
2018-04-19T06:30:57.942Z,8988.00
2018-04-19T06:31:57.863Z,9072.00
2018-04-19T06:32:57.775Z,9128.00
2018-04-19T06:33:57.682Z,9180.00
2018-04-19T06:34:57.592Z,9236.00
2018-04-19T06:35:57.536Z,9252.00
2018-04-19T06:36:57.422Z,9312.00
2018-04-19T06:37:57.333Z,9408.00
2018-04-19T06:38:57.241Z,9480.00
2018-04-19T06:39:57.162Z,9504.00
2018-04-19T06:40:57.072Z,9548.00
2018-04-19T06:41:56.981Z,9604.00
2018-04-19T06:42:57.152Z,9724.00
2018-04-19T06:43:56.815Z,9796.00
2018-04-19T06:44:56.734Z,9816.00
2018-04-19T06:45:56.631Z,9856.00
2018-04-19T06:46:56.552Z,9920.00
2018-04-19T06:47:56.463Z,9996.00
2018-04-19T06:48:56.371Z,10084.00
2018-04-19T06:49:56.292Z,10124.00
2018-04-19T06:50:56.201Z,10216.00
2018-04-19T06:51:56.112Z,10240.00
2018-04-19T06:52:56.021Z,10324.00
2018-04-19T06:53:55.941Z,10396.00
2018-04-19T06:54:55.851Z,10448.00
2018-04-19T06:55:55.761Z,10524.00
2018-04-19T06:56:55.687Z,10580.00
2018-04-19T06:57:55.842Z,10656.00
2018-04-19T06:58:55.500Z,10572.00
2018-04-19T06:59:55.422Z,10748.00
2018-04-19T07:00:55.398Z,10872.00
2018-04-19T07:01:55.241Z,10960.00
2018-04-19T07:02:55.161Z,11016.00
2018-04-19T07:03:55.073Z,11088.00
2018-04-19T07:04:54.992Z,11156.00
2018-04-19T07:05:54.901Z,11268.00
2018-04-19T07:06:54.811Z,11344.00
2018-04-19T07:07:54.733Z,11388.00
2018-04-19T07:08:54.642Z,11428.00
2018-04-19T07:09:54.552Z,11544.00
2018-04-19T07:10:54.476Z,11608.00
2018-04-19T07:11:54.382Z,11672.00
2018-04-19T07:12:54.292Z,11624.00
2018-04-19T07:13:54.213Z,11524.00
2018-04-19T07:14:54.121Z,11240.00
2018-04-19T07:15:54.043Z,10396.00
2018-04-19T07:16:53.953Z,9308.00
2018-04-19T07:17:53.875Z,8556.00
2018-04-19T07:18:53.785Z,8296.00
2018-04-19T07:19:53.693Z,8196.00
2018-04-19T07:20:53.603Z,8112.00
2018-04-19T07:21:53.524Z,8160.00
2018-04-19T07:22:53.434Z,8108.00
2018-04-19T07:23:53.355Z,8044.00
2018-04-19T07:24:53.252Z,7928.00
2018-04-19T07:25:53.240Z,7820.00
2018-04-19T07:26:53.095Z,7736.00
2018-04-19T07:27:52.993Z,7680.00
2018-04-19T07:28:52.900Z,7624.00
2018-04-19T07:29:52.821Z,7636.00
2018-04-19T07:30:52.732Z,7632.00
2018-04-19T07:31:52.653Z,7636.00
2018-04-19T07:32:52.549Z,7628.00
2018-04-19T07:33:52.458Z,7668.00
2018-04-19T07:34:52.368Z,7696.00
2018-04-19T07:35:52.290Z,7728.00
2018-04-19T07:36:52.198Z,7756.00
2018-04-19T07:37:52.108Z,7788.00
2018-04-19T07:38:52.017Z,7812.00
2018-04-19T07:39:51.931Z,7840.00
2018-04-19T07:40:51.837Z,7884.00
2018-04-19T07:41:51.745Z,7940.00
2018-04-19T07:42:51.903Z,7996.00
2018-04-19T07:43:51.563Z,8004.00
2018-04-19T07:44:51.490Z,7952.00
2018-04-19T07:45:51.382Z,7912.00
2018-04-19T07:46:51.291Z,7776.00
2018-04-19T07:47:51.200Z,7924.00
2018-04-19T07:48:51.110Z,8000.00
2018-04-19T07:49:51.030Z,8068.00
2018-04-19T07:50:50.929Z,8104.00
2018-04-19T07:51:50.849Z,8136.00
2018-04-19T07:52:50.758Z,8152.00
2018-04-19T07:53:50.680Z,8164.00
2018-04-19T07:54:50.586Z,8192.00
2018-04-19T07:55:50.477Z,8248.00
2018-04-19T07:56:50.395Z,8296.00
2018-04-19T07:57:50.303Z,8356.00
2018-04-19T07:58:50.214Z,8416.00
2018-04-19T07:59:50.122Z,8480.00
2018-04-19T08:00:50.032Z,8576.00
2018-04-19T08:01:49.941Z,8684.00
2018-04-19T08:02:49.851Z,8772.00
2018-04-19T08:03:49.759Z,8768.00
2018-04-19T08:04:49.670Z,8696.00
2018-04-19T08:05:49.578Z,8448.00
2018-04-19T08:06:49.486Z,8560.00
2018-04-19T08:07:49.395Z,8660.00
2018-04-19T08:08:49.306Z,8748.00
2018-04-19T08:09:49.215Z,8780.00
2018-04-19T08:10:49.125Z,8784.00
2018-04-19T08:11:49.033Z,8720.00
2018-04-19T08:12:48.943Z,8708.00
2018-04-19T08:13:48.852Z,8652.00
2018-04-19T08:14:48.764Z,8764.00
2018-04-19T08:15:48.669Z,8848.00
2018-04-19T08:16:48.579Z,8864.00
2018-04-19T08:17:48.738Z,8880.00
2018-04-19T08:18:48.412Z,8884.00
2018-04-19T08:19:48.306Z,8884.00
2018-04-19T08:20:48.215Z,8908.00
2018-04-19T08:21:48.126Z,8928.00
2018-04-19T08:22:48.035Z,8948.00
2018-04-19T08:23:47.942Z,8964.00
2018-04-19T08:24:47.853Z,8960.00
2018-04-19T08:25:47.762Z,8968.00
2018-04-19T08:26:47.675Z,8968.00
2018-04-19T08:27:47.579Z,8996.00
2018-04-19T08:28:47.489Z,9000.00
2018-04-19T08:29:47.397Z,9012.00
2018-04-19T08:30:47.307Z,9020.00
2018-04-19T08:31:47.216Z,9020.00
2018-04-19T08:32:47.127Z,9028.00
2018-04-19T08:33:47.035Z,9012.00
2018-04-19T08:34:46.945Z,9008.00
2018-04-19T08:35:46.854Z,9024.00
2018-04-19T08:36:46.763Z,9048.00
2018-04-19T08:37:46.671Z,9056.00
2018-04-19T08:38:46.581Z,9060.00
2018-04-19T08:39:46.489Z,9068.00
2018-04-19T08:40:46.400Z,9068.00
2018-04-19T08:41:46.308Z,9064.00
2018-04-19T08:42:46.218Z,9080.00
2018-04-19T08:43:46.125Z,9100.00
2018-04-19T08:44:46.036Z,9140.00
2018-04-19T08:45:45.961Z,9168.00
2018-04-19T08:46:45.854Z,9180.00
2018-04-19T08:47:45.763Z,9212.00
2018-04-19T08:48:45.673Z,9240.00
2018-04-19T08:49:45.581Z,9240.00
2018-04-19T08:50:45.491Z,9304.00
2018-04-19T08:51:45.402Z,9340.00
2018-04-19T08:52:45.311Z,9384.00
2018-04-19T08:53:45.232Z,9436.00
2018-04-19T08:54:45.152Z,9524.00
2018-04-19T08:55:45.050Z,9652.00
2018-04-19T08:56:44.958Z,9748.00
2018-04-19T08:57:45.169Z,9824.00
2018-04-19T08:58:44.776Z,9944.00
2018-04-19T08:59:44.688Z,10088.00
2018-04-19T09:00:44.595Z,10212.00
2018-04-19T09:01:44.504Z,10328.00
2018-04-19T09:02:44.430Z,10404.00
2018-04-19T09:03:44.324Z,10432.00
2018-04-19T09:04:44.232Z,10440.00
2018-04-19T09:05:44.141Z,10416.00
2018-04-19T09:06:44.051Z,10380.00
2018-04-19T09:07:43.961Z,10284.00
2018-04-19T09:08:43.881Z,10148.00
2018-04-19T09:09:43.790Z,9972.00
2018-04-19T09:10:43.701Z,9812.00
2018-04-19T09:11:43.610Z,9740.00
2018-04-19T09:12:43.518Z,9744.00
2018-04-19T09:13:43.427Z,9756.00
2018-04-19T09:14:43.338Z,9784.00
2018-04-19T09:15:43.246Z,9840.00
2018-04-19T09:16:43.155Z,9904.00
2018-04-19T09:17:43.064Z,9948.00
2018-04-19T09:18:42.974Z,10016.00
2018-04-19T09:19:42.882Z,10128.00
2018-04-19T09:20:42.803Z,10228.00
2018-04-19T09:21:42.706Z,10276.00
2018-04-19T09:22:42.622Z,10312.00
2018-04-19T09:23:42.533Z,10336.00
2018-04-19T09:24:42.441Z,10372.00
2018-04-19T09:25:42.350Z,10468.00
2018-04-19T09:26:42.267Z,10632.00
2018-04-19T09:27:42.169Z,10764.00
2018-04-19T09:28:42.077Z,12680.00
2018-04-19T09:29:41.988Z,19200.00
2018-04-19T09:30:41.895Z,19872.00
2018-04-19T09:31:41.805Z,14908.00
2018-04-19T09:32:41.721Z,24352.00
2018-04-19T09:33:41.638Z,42432.00
2018-04-19T09:34:41.545Z,51552.00
2018-04-19T09:35:41.454Z,50240.00
2018-04-19T09:36:41.364Z,50400.00
2018-04-19T09:37:41.273Z,51392.00
2018-04-19T09:38:41.182Z,51968.00
2018-04-19T09:39:41.105Z,53504.00
2018-04-19T09:40:41.013Z,53504.00
2018-04-19T09:41:40.921Z,53312.00
2018-04-19T09:42:40.831Z,53056.00
2018-04-19T09:43:40.752Z,52128.00
2018-04-19T09:44:40.663Z,52064.00
2018-04-19T09:45:40.584Z,52128.00
2018-04-19T09:46:40.532Z,51968.00
2018-04-19T09:47:40.428Z,49248.00
2018-04-19T09:48:40.327Z,45824.00
2018-04-19T09:49:40.245Z,42976.00
2018-04-19T09:50:40.157Z,40704.00
2018-04-19T09:51:40.089Z,39520.00
2018-04-19T09:52:39.985Z,38400.00
2018-04-19T09:53:39.907Z,37536.00
2018-04-19T09:54:39.829Z,37088.00
2018-04-19T09:55:39.738Z,37184.00
2018-04-19T09:56:39.659Z,37376.00
2018-04-19T09:57:39.893Z,35328.00
2018-04-19T09:58:39.491Z,33408.00
2018-04-19T09:59:39.412Z,35872.00
2018-04-19T10:00:39.333Z,36032.00
2018-04-19T10:01:39.255Z,36352.00
2018-04-19T10:02:39.178Z,35840.00
2018-04-19T10:03:39.097Z,36352.00
2018-04-19T10:04:39.007Z,35648.00
2018-04-19T10:05:38.928Z,36096.00
2018-04-19T10:06:38.850Z,36352.00
2018-04-19T10:07:38.784Z,38976.00
2018-04-19T10:08:38.693Z,43616.00
2018-04-19T10:09:38.616Z,45728.00
2018-04-19T10:10:38.536Z,46464.00
2018-04-19T10:11:38.458Z,46976.00
2018-04-19T10:12:38.380Z,46976.00
2018-04-19T10:13:38.302Z,46656.00
2018-04-19T10:14:38.224Z,46112.00
2018-04-19T10:15:38.146Z,46848.00
2018-04-19T10:16:38.081Z,47584.00
2018-04-19T10:17:38.240Z,47904.00
2018-04-19T10:18:37.915Z,48224.00
2018-04-19T10:19:37.834Z,48256.00
2018-04-19T10:20:37.754Z,48768.00
2018-04-19T10:21:37.677Z,48352.00
2018-04-19T10:22:37.599Z,48928.00
2018-04-19T10:23:37.521Z,49088.00
2018-04-19T10:24:37.442Z,48032.00
2018-04-19T10:25:37.377Z,47936.00
2018-04-19T10:26:37.285Z,47552.00
2018-04-19T10:27:37.211Z,45536.00
2018-04-19T10:28:37.173Z,41088.00
2018-04-19T10:29:37.052Z,33824.00
2018-04-19T10:30:36.975Z,27040.00
2018-04-19T10:31:36.946Z,25408.00
2018-04-19T10:32:36.828Z,24736.00
2018-04-19T10:33:36.752Z,25632.00
2018-04-19T10:34:36.672Z,28128.00
2018-04-19T10:35:36.593Z,27744.00
2018-04-19T10:36:36.516Z,40640.00
2018-04-19T10:37:36.436Z,50624.00
2018-04-19T10:38:36.346Z,47936.00
2018-04-19T10:39:36.266Z,47904.00
2018-04-19T10:40:36.188Z,47936.00
2018-04-19T10:41:36.110Z,43712.00
2018-04-19T10:42:36.033Z,43456.00
2018-04-19T10:43:35.955Z,44928.00
2018-04-19T10:44:35.875Z,40288.00
2018-04-19T10:45:35.786Z,36992.00
2018-04-19T10:46:35.706Z,37952.00
2018-04-19T10:47:35.628Z,32768.00
2018-04-19T10:48:35.552Z,29856.00
2018-04-19T10:49:35.464Z,27712.00
2018-04-19T10:50:35.380Z,24544.00
2018-04-19T10:51:35.303Z,22080.00
2018-04-19T10:52:35.213Z,21216.00
2018-04-19T10:53:35.133Z,18688.00
2018-04-19T10:54:35.056Z,14364.00
2018-04-19T10:55:34.964Z,13264.00
2018-04-19T10:56:34.889Z,11872.00
2018-04-19T10:57:34.807Z,11044.00
2018-04-19T10:58:34.717Z,11032.00
2018-04-19T10:59:34.639Z,11312.00
2018-04-19T11:00:34.560Z,12024.00
2018-04-19T11:01:34.468Z,11276.00
2018-04-19T11:02:34.384Z,11144.00
2018-04-19T11:03:34.300Z,11108.00
2018-04-19T11:04:34.210Z,11180.00
2018-04-19T11:05:34.140Z,11076.00
2018-04-19T11:06:34.040Z,11064.00
2018-04-19T11:07:33.964Z,11008.00
2018-04-19T11:08:33.899Z,10888.00
2018-04-19T11:09:33.791Z,10860.00
2018-04-19T11:10:33.702Z,10712.00
2018-04-19T11:11:33.623Z,10488.00
2018-04-19T11:12:33.531Z,10396.00
2018-04-19T11:13:33.453Z,10352.00
2018-04-19T11:14:33.365Z,10320.00
2018-04-19T11:15:33.272Z,10376.00
2018-04-19T11:16:33.193Z,10416.00
2018-04-19T11:17:33.103Z,10336.00
2018-04-19T11:18:33.011Z,10168.00
2018-04-19T11:19:32.933Z,9984.00
2018-04-19T11:20:32.843Z,9844.00
2018-04-19T11:21:32.751Z,9812.00
2018-04-19T11:22:32.694Z,9788.00
2018-04-19T11:23:32.584Z,9776.00
2018-04-19T11:24:32.491Z,9744.00
2018-04-19T11:25:32.416Z,9672.00
2018-04-19T11:26:32.324Z,9600.00
2018-04-19T11:27:32.231Z,9616.00
2018-04-19T11:28:32.153Z,9652.00
2018-04-19T11:29:32.063Z,9652.00
2018-04-19T11:30:31.973Z,9612.00
2018-04-19T11:31:31.884Z,9564.00
2018-04-19T11:32:31.802Z,9528.00
2018-04-19T11:33:31.710Z,9536.00
2018-04-19T11:34:31.672Z,9540.00
2018-04-19T11:35:31.530Z,9576.00
2018-04-19T11:36:31.451Z,9616.00
2018-04-19T11:37:31.361Z,9648.00
2018-04-19T11:38:31.269Z,9616.00
2018-04-19T11:39:31.179Z,9532.00
2018-04-19T11:40:31.101Z,9500.00
2018-04-19T11:41:31.010Z,9412.00
2018-04-19T11:42:30.940Z,9388.00
2018-04-19T11:43:30.829Z,9404.00
2018-04-19T11:44:30.749Z,9404.00
2018-04-19T11:45:30.658Z,9388.00
2018-04-19T11:46:30.581Z,9364.00
2018-04-19T11:47:30.479Z,9364.00
2018-04-19T11:48:30.399Z,9372.00
2018-04-19T11:49:30.308Z,9408.00
2018-04-19T11:50:30.218Z,9428.00
2018-04-19T11:51:30.140Z,9428.00
2018-04-19T11:52:30.048Z,9392.00
2018-04-19T11:53:29.958Z,9280.00
2018-04-19T11:54:29.866Z,9264.00
2018-04-19T11:55:29.777Z,9204.00
2018-04-19T11:56:29.698Z,9120.00
2018-04-19T11:57:29.907Z,9080.00
2018-04-19T11:58:29.518Z,9048.00
2018-04-19T11:59:29.427Z,9060.00
2018-04-19T12:00:29.336Z,9064.00
2018-04-19T12:01:29.258Z,9068.00
2018-04-19T12:02:29.166Z,9044.00
2018-04-19T12:03:29.082Z,9068.00
2018-04-19T12:04:28.984Z,9064.00
2018-04-19T12:05:28.908Z,9052.00
2018-04-19T12:06:28.816Z,9008.00
2018-04-19T12:07:28.725Z,8976.00
2018-04-19T12:08:28.640Z,8968.00
2018-04-19T12:09:28.543Z,8976.00
2018-04-19T12:10:28.455Z,8924.00
2018-04-19T12:11:28.375Z,8868.00
2018-04-19T12:12:28.284Z,8928.00
2018-04-19T12:13:28.203Z,9020.00
2018-04-19T12:14:28.102Z,8940.00
2018-04-19T12:15:28.013Z,8992.00
2018-04-19T12:16:27.934Z,8996.00
2018-04-19T12:17:27.842Z,8912.00
2018-04-19T12:18:27.752Z,9000.00
2018-04-19T12:19:27.660Z,8980.00
2018-04-19T12:20:27.572Z,8968.00
2018-04-19T12:21:27.492Z,8960.00